createdAt,value
2022-11-25T00:01:07.684Z,100983.66
2022-11-25T00:03:36.080Z,100977.88
2022-11-25T00:06:13.005Z,100980.41
2022-11-25T00:08:40.570Z,100976.63
2022-11-25T00:11:07.991Z,100986.84
2022-11-25T00:13:35.528Z,100984.88
2022-11-25T00:16:03.658Z,100982.34
2022-11-25T00:18:31.111Z,100978.72
2022-11-25T00:20:58.520Z,100971.56
2022-11-25T00:23:31.970Z,100971.69
2022-11-25T00:26:07.000Z,100975.22
2022-11-25T00:28:34.407Z,100976.88
2022-11-25T00:31:05.871Z,100967.09
2022-11-25T00:33:33.283Z,100980.41
2022-11-25T00:36:01.875Z,100979.84
2022-11-25T00:38:30.556Z,100970.72
2022-11-25T00:41:11.980Z,100976.19
2022-11-25T00:43:57.089Z,100972.56
2022-11-25T00:46:24.504Z,100978.84
2022-11-25T00:48:51.929Z,100979.56
2022-11-25T00:51:19.551Z,100979.84
2022-11-25T00:53:48.264Z,100976.75
2022-11-25T00:56:15.741Z,100984.28
2022-11-25T00:58:43.409Z,100986.84
2022-11-25T01:01:11.385Z,100990.28
2022-11-25T01:03:39.017Z,100995.16
2022-11-25T01:06:07.627Z,100994.56
2022-11-25T01:08:35.712Z,100989.25
2022-11-25T01:11:06.397Z,100979.44
2022-11-25T01:13:33.817Z,100985.59
2022-11-25T01:16:02.040Z,100990.91
2022-11-25T01:18:29.627Z,100985.00
2022-11-25T01:20:57.182Z,100980.69
2022-11-25T01:23:25.682Z,100986.72
2022-11-25T01:25:53.724Z,100978.03
2022-11-25T01:28:22.451Z,100983.34
2022-11-25T01:31:00.262Z,100984.06
2022-11-25T01:33:27.681Z,100985.25
2022-11-25T01:35:55.096Z,100983.47
2022-11-25T01:38:22.823Z,100981.50
2022-11-25T01:40:50.219Z,100976.19
2022-11-25T01:43:17.646Z,100967.63
2022-11-25T01:45:46.598Z,100971.00
2022-11-25T01:48:15.818Z,100971.84
2022-11-25T01:50:43.343Z,100974.63
2022-11-25T01:53:11.605Z,100976.31
2022-11-25T01:55:39.659Z,100972.13
2022-11-25T01:58:08.022Z,100967.63
2022-11-25T02:00:35.480Z,100961.59
2022-11-25T02:03:06.222Z,100953.63
2022-11-25T02:05:37.307Z,100956.16
2022-11-25T02:08:04.920Z,100951.91
2022-11-25T02:10:32.965Z,100959.91
2022-11-25T02:13:00.379Z,100965.94
2022-11-25T02:15:27.857Z,100959.19
2022-11-25T02:17:55.271Z,100959.78
2022-11-25T02:20:24.493Z,100952.75
2022-11-25T02:22:59.762Z,100949.38
2022-11-25T02:25:29.869Z,100953.03
2022-11-25T02:27:58.610Z,100954.44
2022-11-25T02:30:26.032Z,100952.16
2022-11-25T02:32:54.347Z,100951.78
2022-11-25T02:35:27.802Z,100956.41
2022-11-25T02:37:56.695Z,100956.53
2022-11-25T02:40:24.212Z,100946.84
2022-11-25T02:42:52.919Z,100940.44
2022-11-25T02:45:21.921Z,100949.63
2022-11-25T02:47:49.347Z,100949.25
2022-11-25T02:50:16.784Z,100961.97
2022-11-25T02:52:45.190Z,100954.56
2022-11-25T02:55:12.611Z,100956.28
2022-11-25T02:57:40.069Z,100956.53
2022-11-25T03:00:09.959Z,100958.41
2022-11-25T03:02:37.808Z,100958.34
2022-11-25T03:05:05.564Z,100955.44
2022-11-25T03:07:32.995Z,100958.09
2022-11-25T03:10:00.969Z,100971.97
2022-11-25T03:12:29.543Z,100967.75
2022-11-25T03:14:58.277Z,100964.63
2022-11-25T03:17:27.020Z,100969.13
2022-11-25T03:19:55.285Z,100966.59
2022-11-25T03:22:22.732Z,100970.81
2022-11-25T03:24:50.159Z,100970.66
2022-11-25T03:27:17.576Z,100967.28
2022-11-25T03:29:45.001Z,100971.66
2022-11-25T03:32:13.334Z,100975.16
2022-11-25T03:34:42.073Z,100981.59
2022-11-25T03:37:10.080Z,100972.63
2022-11-25T03:39:38.217Z,100971.66
2022-11-25T03:42:07.183Z,100969.69
2022-11-25T03:44:34.932Z,100975.03
2022-11-25T03:47:02.653Z,100981.31
2022-11-25T03:49:30.286Z,100973.31
2022-11-25T03:51:59.020Z,100977.81
2022-11-25T03:54:26.687Z,100976.16
2022-11-25T03:57:19.110Z,100977.69
2022-11-25T03:59:46.532Z,100975.16
2022-11-25T04:02:14.757Z,100971.41
2022-11-25T04:04:42.223Z,100977.09
2022-11-25T04:07:10.971Z,100973.31
2022-11-25T04:09:38.797Z,100976.72
2022-11-25T04:12:25.587Z,100989.03
2022-11-25T04:14:56.405Z,100980.34
2022-11-25T04:17:23.874Z,100982.19
2022-11-25T04:19:52.164Z,100983.00
2022-11-25T04:22:20.873Z,100987.38
2022-11-25T04:24:51.706Z,100984.97
2022-11-25T04:27:24.449Z,100985.66
2022-11-25T04:29:53.100Z,100983.00
2022-11-25T04:32:22.806Z,100988.34
2022-11-25T04:34:50.393Z,100996.31
2022-11-25T04:37:18.692Z,100992.56
2022-11-25T04:39:47.474Z,100998.84
2022-11-25T04:42:34.454Z,101005.88
2022-11-25T04:47:56.127Z,101006.13
2022-11-25T04:50:24.071Z,101006.97
2022-11-25T04:53:06.526Z,101015.53
2022-11-25T04:55:35.405Z,101003.59
2022-11-25T04:58:06.705Z,101006.31
2022-11-25T05:00:34.859Z,101008.97
2022-11-25T05:03:03.172Z,101006.56
2022-11-25T05:05:32.092Z,101014.69
2022-11-25T05:08:00.231Z,101003.19
2022-11-25T05:10:28.336Z,101002.22
2022-11-25T05:12:57.256Z,100997.97
2022-11-25T05:15:24.682Z,101001.75
2022-11-25T05:17:53.727Z,101012.16
2022-11-25T05:20:35.352Z,100999.81
2022-11-25T05:23:03.108Z,101013.94
2022-11-25T05:25:30.959Z,101005.97
2022-11-25T05:28:17.750Z,101012.16
2022-11-25T05:30:45.629Z,101014.34
2022-11-25T05:33:13.208Z,101012.53
2022-11-25T05:35:40.664Z,101016.03
2022-11-25T05:38:08.456Z,101023.16
2022-11-25T05:40:37.085Z,101014.34
2022-11-25T05:43:09.365Z,101026.41
2022-11-25T05:45:40.818Z,101029.31
2022-11-25T05:48:10.144Z,101033.69
2022-11-25T05:50:37.793Z,101025.84
2022-11-25T05:53:17.192Z,101025.00
2022-11-25T05:55:45.290Z,101031.41
2022-11-25T05:58:24.064Z,101034.78
2022-11-25T06:00:56.015Z,101037.44
2022-11-25T06:03:25.406Z,101027.78
2022-11-25T06:05:52.895Z,101027.53
2022-11-25T06:08:20.492Z,101023.03
2022-11-25T06:10:47.939Z,101030.25
2022-11-25T06:13:15.349Z,101024.56
2022-11-25T06:15:43.099Z,101023.50
2022-11-25T06:18:13.253Z,101030.91
2022-11-25T06:20:40.700Z,101032.00
2022-11-25T06:23:08.857Z,101033.22
2022-11-25T06:25:37.788Z,101032.38
2022-11-25T06:28:14.015Z,101024.66
2022-11-25T06:30:47.033Z,101023.78
2022-11-25T06:33:22.335Z,101019.84
2022-11-25T06:35:50.482Z,101020.59
2022-11-25T06:38:17.890Z,101026.66
2022-11-25T06:40:45.301Z,101020.50
2022-11-25T06:43:12.724Z,101023.38
2022-11-25T06:45:40.168Z,101020.84
2022-11-25T06:48:07.587Z,101030.25
2022-11-25T06:50:36.305Z,101026.75
2022-11-25T06:53:03.731Z,101034.88
2022-11-25T06:55:31.403Z,101036.28
2022-11-25T06:58:20.283Z,101045.50
2022-11-25T07:00:46.236Z,101046.41
2022-11-25T07:03:13.712Z,101046.78
2022-11-25T07:05:42.436Z,101041.56
2022-11-25T07:08:09.865Z,101043.53
2022-11-25T07:10:37.268Z,101051.00
2022-11-25T07:13:04.709Z,101063.31
2022-11-25T07:15:32.129Z,101057.00
2022-11-25T07:17:59.547Z,101062.31
2022-11-25T07:20:27.743Z,101065.84
2022-11-25T07:22:56.454Z,101071.16
2022-11-25T07:25:29.365Z,101072.13
2022-11-25T07:27:58.788Z,101080.81
2022-11-25T07:31:21.786Z,101096.91
2022-11-25T07:33:14.642Z,101090.75
2022-11-25T07:35:42.092Z,101092.44
2022-11-25T07:38:10.776Z,101101.16
2022-11-25T07:40:38.197Z,101099.56
2022-11-25T07:43:05.600Z,101108.28
2022-11-25T07:45:33.021Z,101097.91
2022-11-25T07:48:08.761Z,101106.00
2022-11-25T07:50:36.183Z,101102.50
2022-11-25T07:53:03.590Z,101098.72
2022-11-25T07:55:32.307Z,101098.72
2022-11-25T07:57:59.737Z,101087.13
2022-11-25T08:00:27.305Z,101090.88
2022-11-25T08:02:55.086Z,101082.75
2022-11-25T08:05:22.554Z,101079.41
2022-11-25T08:07:50.017Z,101087.25
2022-11-25T08:10:17.503Z,101089.78
2022-11-25T08:12:46.198Z,101085.44
2022-11-25T08:15:13.687Z,101082.88
2022-11-25T08:17:41.106Z,101085.56
2022-11-25T08:20:09.434Z,101091.72
2022-11-25T08:22:36.842Z,101098.84
2022-11-25T08:25:04.352Z,101098.72
2022-11-25T08:27:31.773Z,101100.44
2022-11-25T08:30:00.579Z,101098.59
2022-11-25T08:32:28.050Z,101098.59
2022-11-25T08:34:55.468Z,101097.66
2022-11-25T08:37:23.039Z,101102.97
2022-11-25T08:39:53.282Z,101100.31
2022-11-25T08:42:21.205Z,101103.44
2022-11-25T08:44:52.606Z,101099.91
2022-11-25T08:47:21.300Z,101104.41
2022-11-25T08:49:51.492Z,101106.22
2022-11-25T08:52:18.956Z,101101.63
2022-11-25T08:54:46.395Z,101118.78
2022-11-25T08:57:13.871Z,101116.13
2022-11-25T08:59:41.328Z,101111.53
2022-11-25T09:02:09.511Z,101114.22
2022-11-25T09:04:38.356Z,101121.19
2022-11-25T09:07:06.001Z,101120.50
2022-11-25T09:09:33.497Z,101116.13
2022-11-25T09:12:00.966Z,101124.84
2022-11-25T09:14:28.428Z,101124.09
2022-11-25T09:16:57.033Z,101125.81
2022-11-25T09:19:24.450Z,101125.56
2022-11-25T09:21:53.226Z,101124.84
2022-11-25T09:24:20.633Z,101130.06
2022-11-25T09:26:49.272Z,101127.50
2022-11-25T09:29:16.682Z,101125.56
2022-11-25T09:31:44.181Z,101124.56
2022-11-25T09:34:11.706Z,101123.03
2022-11-25T09:36:39.270Z,101125.47
2022-11-25T09:39:08.133Z,101119.69
2022-11-25T09:42:01.262Z,101121.75
2022-11-25T09:44:53.338Z,101121.03
2022-11-25T09:47:24.836Z,101118.50
2022-11-25T09:50:00.940Z,101119.56
2022-11-25T09:52:33.128Z,101118.72
2022-11-25T09:55:06.328Z,101121.28
2022-11-25T09:57:39.188Z,101114.25
2022-11-25T10:00:07.650Z,101108.22
2022-11-25T10:02:42.253Z,101113.66
2022-11-25T10:05:13.107Z,101112.81
2022-11-25T10:07:41.836Z,101105.69
2022-11-25T10:10:16.520Z,101106.41
2022-11-25T10:12:44.591Z,101099.41
2022-11-25T10:15:15.036Z,101103.88
2022-11-25T10:17:44.651Z,101098.91
2022-11-25T10:20:15.027Z,101097.44
2022-11-25T10:22:43.622Z,101105.56
2022-11-25T10:25:16.063Z,101100.34
2022-11-25T10:27:44.815Z,101102.31
2022-11-25T10:30:16.473Z,101099.53
2022-11-25T10:32:45.359Z,101100.09
2022-11-25T10:35:18.353Z,101102.66
2022-11-25T10:37:46.065Z,101092.25
2022-11-25T10:40:16.529Z,101094.41
2022-11-25T10:42:44.055Z,101101.72
2022-11-25T10:45:11.668Z,101096.03
2022-11-25T10:47:50.184Z,101101.09
2022-11-25T10:50:18.617Z,101094.22
2022-11-25T10:52:49.887Z,101100.13
2022-11-25T10:55:19.453Z,101091.09
2022-11-25T10:57:46.903Z,101102.50
2022-11-25T11:00:29.587Z,101101.63
2022-11-25T11:02:57.182Z,101098.16
2022-11-25T11:05:25.565Z,101100.94
2022-11-25T11:08:09.001Z,101109.16
2022-11-25T11:10:37.770Z,101113.03
2022-11-25T11:13:05.986Z,101108.94
2022-11-25T11:15:34.121Z,101110.75
2022-11-25T11:18:15.055Z,101117.31
2022-11-25T11:20:46.462Z,101120.69
2022-11-25T11:23:14.853Z,101111.13
2022-11-25T11:25:43.954Z,101105.78
2022-11-25T11:28:34.684Z,101105.78
2022-11-25T11:31:03.352Z,101107.84
2022-11-25T11:33:43.539Z,101097.56
2022-11-25T11:36:26.585Z,101115.53
2022-11-25T11:38:54.969Z,101101.63
2022-11-25T11:41:32.040Z,101096.19
2022-11-25T11:44:06.051Z,101107.56
2022-11-25T11:46:43.237Z,101096.28
2022-11-25T11:49:20.809Z,101098.25
2022-11-25T11:51:52.685Z,101105.22
2022-11-25T11:54:23.493Z,101097.97
2022-11-25T11:56:55.609Z,101101.63
2022-11-25T11:59:42.453Z,101094.09
2022-11-25T12:02:21.014Z,101097.59
2022-11-25T12:04:52.954Z,101083.25
2022-11-25T12:07:22.135Z,101097.69
2022-11-25T12:09:52.238Z,101086.31
2022-11-25T12:12:20.924Z,101083.06
2022-11-25T12:14:50.051Z,101083.44
2022-11-25T12:17:19.029Z,101078.25
2022-11-25T12:19:51.346Z,101079.31
2022-11-25T12:22:20.464Z,101083.69
2022-11-25T12:24:51.107Z,101074.88
2022-11-25T12:27:19.870Z,101079.47
2022-11-25T12:29:50.571Z,101080.69
2022-11-25T12:32:31.385Z,101077.91
2022-11-25T12:35:01.984Z,101072.59
2022-11-25T12:37:32.870Z,101071.03
2022-11-25T12:40:03.825Z,101076.59
2022-11-25T12:42:31.398Z,101083.59
2022-11-25T12:45:01.694Z,101075.63
2022-11-25T12:47:29.109Z,101077.31
2022-11-25T12:49:56.634Z,101082.75
2022-11-25T12:52:40.287Z,101086.38
2022-11-25T12:55:13.417Z,101086.38
2022-11-25T12:57:59.727Z,101079.97
2022-11-25T13:00:44.858Z,101078.25
2022-11-25T13:03:31.773Z,101082.41
2022-11-25T13:06:05.736Z,101084.69
2022-11-25T13:08:45.633Z,101081.22
2022-11-25T13:11:33.734Z,101077.69
2022-11-25T13:14:03.202Z,101072.81
2022-11-25T13:16:32.713Z,101072.94
2022-11-25T13:19:00.521Z,101063.00
2022-11-25T13:21:29.039Z,101067.81
2022-11-25T13:23:57.183Z,101073.25
2022-11-25T13:26:49.658Z,101083.91
2022-11-25T13:30:00.865Z,101085.63
2022-11-25T13:32:48.357Z,101088.97
2022-11-25T13:35:37.746Z,101093.59
2022-11-25T13:38:46.844Z,101096.13
2022-11-25T13:41:34.491Z,101097.81
2022-11-25T13:44:05.833Z,101107.06
2022-11-25T13:46:38.300Z,101100.88
2022-11-25T13:49:07.189Z,101101.34
2022-11-25T13:51:34.600Z,101112.00
2022-11-25T13:54:02.384Z,101118.91
2022-11-25T13:56:30.631Z,101115.53
2022-11-25T13:59:20.882Z,101119.03
2022-11-25T14:01:54.763Z,101118.28
2022-11-25T14:04:31.757Z,101116.38
2022-11-25T14:07:04.910Z,101118.06
2022-11-25T14:09:39.293Z,101115.53
2022-11-25T14:12:34.481Z,101129.19
2022-11-25T14:15:23.005Z,101114.84
2022-11-25T14:18:12.451Z,101125.69
2022-11-25T14:20:44.239Z,101121.06
2022-11-25T14:23:46.129Z,101119.31
2022-11-25T14:26:42.230Z,101131.94
2022-11-25T14:29:05.181Z,101132.19
2022-11-25T14:31:37.517Z,101135.09
2022-11-25T14:34:07.716Z,101133.28
2022-11-25T14:36:40.019Z,101139.59
2022-11-25T14:39:09.866Z,101146.75
2022-11-25T14:41:38.652Z,101144.22
2022-11-25T14:44:06.796Z,101138.88
2022-11-25T14:46:34.191Z,101143.63
2022-11-25T14:49:03.317Z,101145.03
2022-11-25T14:51:34.945Z,101150.38
2022-11-25T14:54:04.928Z,101149.53
2022-11-25T14:56:33.695Z,101147.00
2022-11-25T14:59:01.122Z,101150.63
2022-11-25T15:01:29.165Z,101164.63
2022-11-25T15:04:04.071Z,101160.31
2022-11-25T15:06:34.506Z,101166.22
2022-11-25T15:09:01.939Z,101171.66
2022-11-25T15:11:31.607Z,101172.63
2022-11-25T15:14:00.172Z,101171.06
2022-11-25T15:16:32.380Z,101169.97
2022-11-25T15:19:00.580Z,101177.94
2022-11-25T15:21:30.068Z,101182.56
2022-11-25T15:23:57.506Z,101182.56
2022-11-25T15:26:25.811Z,101180.91
2022-11-25T15:28:56.839Z,101185.22
2022-11-25T15:31:27.362Z,101190.44
2022-11-25T15:33:57.527Z,101189.47
2022-11-25T15:36:25.053Z,101184.41
2022-11-25T15:38:52.484Z,101192.50
2022-11-25T15:41:22.184Z,101191.06
2022-11-25T15:43:50.244Z,101192.16
2022-11-25T15:46:19.182Z,101192.28
2022-11-25T15:48:47.327Z,101187.47
2022-11-25T15:51:30.608Z,101196.00
2022-11-25T15:53:59.649Z,101184.94
2022-11-25T15:56:27.201Z,101184.41
2022-11-25T15:58:58.773Z,101188.53
2022-11-25T16:01:30.755Z,101194.69
2022-11-25T16:04:10.510Z,101194.56
2022-11-25T16:06:37.939Z,101186.72
2022-11-25T16:09:05.897Z,101190.22
2022-11-25T16:11:45.356Z,101182.59
2022-11-25T16:14:19.697Z,101190.59
2022-11-25T16:16:48.496Z,101198.31
2022-11-25T16:19:17.566Z,101193.13
2022-11-25T16:21:53.509Z,101188.09
2022-11-25T16:24:33.365Z,101189.75
2022-11-25T16:27:01.569Z,101122.44
2022-11-25T16:29:31.561Z,101128.03
2022-11-25T16:32:00.453Z,101127.44
2022-11-25T16:34:27.977Z,101131.94
2022-11-25T16:36:55.396Z,101132.19
2022-11-25T16:39:22.807Z,101137.75
2022-11-25T16:41:56.429Z,101140.56
2022-11-25T16:44:24.658Z,101198.19
2022-11-25T16:46:52.115Z,101197.06
2022-11-25T16:49:21.114Z,101198.06
2022-11-25T16:51:50.400Z,101199.72
2022-11-25T16:54:18.456Z,101195.50
2022-11-25T16:56:45.856Z,101200.13
2022-11-25T16:59:15.833Z,101197.59
2022-11-25T17:01:43.637Z,101210.03
2022-11-25T17:04:12.293Z,101215.34
2022-11-25T17:06:42.132Z,101223.09
2022-11-25T17:09:09.588Z,101214.16
2022-11-25T17:11:46.128Z,101212.44
2022-11-25T17:14:25.693Z,101217.31
2022-11-25T17:16:53.540Z,101211.97
2022-11-25T17:19:21.240Z,101224.47
2022-11-25T17:21:50.067Z,101218.19
2022-11-25T17:24:18.700Z,101216.94
2022-11-25T17:26:47.172Z,101221.03
2022-11-25T17:29:17.824Z,101226.22
2022-11-25T17:31:45.361Z,101226.34
2022-11-25T17:34:17.314Z,101221.91
2022-11-25T17:36:45.057Z,101236.75
2022-11-25T17:39:14.300Z,101234.81
2022-11-25T17:41:43.680Z,101235.56
2022-11-25T17:44:19.532Z,101234.56
2022-11-25T17:46:46.938Z,101238.22
2022-11-25T17:49:14.917Z,101235.69
2022-11-25T17:51:43.525Z,101245.22
2022-11-25T17:54:10.979Z,101239.91
2022-11-25T17:56:39.818Z,101245.34
2022-11-25T17:59:11.840Z,101238.22
2022-11-25T18:01:39.312Z,101252.00
2022-11-25T18:04:16.522Z,101247.63
2022-11-25T18:06:44.087Z,101258.78
2022-11-25T18:09:11.659Z,101259.91
2022-11-25T18:11:42.695Z,101261.97
2022-11-25T18:14:14.421Z,101256.88
2022-11-25T18:16:42.490Z,101261.50
2022-11-25T18:19:12.260Z,101257.34
2022-11-25T18:21:39.669Z,101262.38
2022-11-25T18:24:07.165Z,101264.34
2022-11-25T18:26:38.031Z,101264.81
2022-11-25T18:29:07.967Z,101275.47
2022-11-25T18:31:35.509Z,101275.47
2022-11-25T18:34:02.939Z,101275.47
2022-11-25T18:36:30.417Z,101271.38
2022-11-25T18:38:57.913Z,101271.25
2022-11-25T18:41:26.824Z,101276.13
2022-11-25T18:43:54.237Z,101276.25
2022-11-25T18:46:22.968Z,101278.91
2022-11-25T18:48:53.106Z,101276.47
2022-11-25T18:51:20.524Z,101273.69
2022-11-25T18:53:47.937Z,101286.78
2022-11-25T18:56:17.990Z,101295.88
2022-11-25T18:58:46.806Z,101293.06
2022-11-25T19:01:14.525Z,101289.69
2022-11-25T19:03:43.342Z,101289.69
2022-11-25T19:06:14.592Z,101300.34
2022-11-25T19:08:42.037Z,101294.16
2022-11-25T19:11:12.702Z,101301.19
2022-11-25T19:13:40.137Z,101303.13
2022-11-25T19:16:08.911Z,101310.97
2022-11-25T19:18:36.603Z,101304.94
2022-11-25T19:21:05.549Z,101312.81
2022-11-25T19:23:35.865Z,101314.50
2022-11-25T19:26:07.519Z,101322.75
2022-11-25T19:28:34.933Z,101317.19
2022-11-25T19:31:03.173Z,101319.31
2022-11-25T19:33:33.020Z,101326.31
2022-11-25T19:36:00.474Z,101328.75
2022-11-25T19:38:30.915Z,101327.53
2022-11-25T19:40:58.367Z,101340.50
2022-11-25T19:43:27.012Z,101339.63
2022-11-25T19:45:54.583Z,101341.97
2022-11-25T19:48:22.195Z,101339.91
2022-11-25T19:50:51.854Z,101349.00
2022-11-25T19:53:20.216Z,101352.50
2022-11-25T19:55:48.959Z,101349.84
2022-11-25T19:58:16.398Z,101355.88
2022-11-25T20:00:44.238Z,101361.22
2022-11-25T20:03:14.227Z,101372.72
2022-11-25T20:05:41.644Z,101362.31
2022-11-25T20:08:11.460Z,101371.88
2022-11-25T20:10:38.893Z,101376.59
2022-11-25T20:13:08.224Z,101368.59
2022-11-25T20:15:35.682Z,101374.44
2022-11-25T20:18:03.083Z,101380.22
2022-11-25T20:20:32.688Z,101387.50
2022-11-25T20:23:01.102Z,101387.72
2022-11-25T20:25:28.655Z,101388.84
2022-11-25T20:27:56.059Z,101393.28
2022-11-25T20:30:25.475Z,101396.81
2022-11-25T20:32:52.878Z,101397.66
2022-11-25T20:35:20.819Z,101397.78
2022-11-25T20:38:00.217Z,101401.56
2022-11-25T20:40:33.270Z,101401.56
2022-11-25T20:43:00.729Z,101410.38
2022-11-25T20:45:29.496Z,101412.31
2022-11-25T20:47:58.879Z,101414.00
2022-11-25T20:50:26.334Z,101417.66
2022-11-25T20:52:53.762Z,101423.81
2022-11-25T20:55:23.304Z,101434.34
2022-11-25T20:57:51.691Z,101434.22
2022-11-25T21:00:20.317Z,101431.91
2022-11-25T21:02:49.108Z,101432.75
2022-11-25T21:05:16.767Z,101438.34
2022-11-25T21:07:44.227Z,101445.34
2022-11-25T21:10:18.366Z,101440.88
2022-11-25T21:12:45.769Z,101454.31
2022-11-25T21:15:14.654Z,101447.16
2022-11-25T21:17:42.081Z,101445.22
2022-11-25T21:20:12.369Z,101445.47
2022-11-25T21:22:41.319Z,101438.47
2022-11-25T21:25:11.621Z,101444.50
2022-11-25T21:27:39.024Z,101454.44
2022-11-25T21:30:07.747Z,101454.31
2022-11-25T21:32:35.169Z,101463.97
2022-11-25T21:35:03.933Z,101462.41
2022-11-25T21:37:33.438Z,101458.91
2022-11-25T21:40:00.845Z,101469.22
2022-11-25T21:42:28.286Z,101463.41
2022-11-25T21:44:55.700Z,101473.44
2022-11-25T21:47:24.110Z,101468.47
2022-11-25T21:49:51.668Z,101468.47
2022-11-25T21:52:19.162Z,101476.44
2022-11-25T21:54:48.884Z,101469.78
2022-11-25T21:57:16.853Z,101473.06
2022-11-25T21:59:44.998Z,101480.34
2022-11-25T22:02:16.544Z,101477.41
2022-11-25T22:04:43.993Z,101471.47
2022-11-25T22:07:11.435Z,101476.69
2022-11-25T22:09:38.926Z,101481.16
2022-11-25T22:12:08.044Z,101484.78
2022-11-25T22:14:38.227Z,101495.13
2022-11-25T22:17:07.401Z,101497.63
2022-11-25T22:19:34.802Z,101497.28
2022-11-25T22:22:02.220Z,101502.72
2022-11-25T22:24:30.617Z,101496.91
2022-11-25T22:27:00.052Z,101503.06
2022-11-25T22:29:35.619Z,101504.16
2022-11-25T22:32:07.017Z,101499.91
2022-11-25T22:34:37.396Z,101505.25
2022-11-25T22:37:05.148Z,101508.63
2022-11-25T22:39:32.574Z,101511.41
2022-11-25T22:42:03.610Z,101516.84
2022-11-25T22:44:33.891Z,101521.22
2022-11-25T22:47:01.316Z,101519.78
2022-11-25T22:49:31.349Z,101524.84
2022-11-25T22:51:58.960Z,101533.59
2022-11-25T22:54:26.361Z,101532.09
2022-11-25T22:56:53.820Z,101535.63
2022-11-25T22:59:21.231Z,101538.16
2022-11-25T23:01:49.989Z,101539.13
2022-11-25T23:04:18.603Z,101537.19
2022-11-25T23:06:46.073Z,101534.75
2022-11-25T23:09:15.087Z,101538.28
2022-11-25T23:11:42.568Z,101552.22
2022-11-25T23:14:11.149Z,101540.88
2022-11-25T23:16:38.892Z,101543.06
2022-11-25T23:19:07.844Z,101546.34
2022-11-25T23:21:35.241Z,101547.19
2022-11-25T23:24:02.695Z,101557.84
2022-11-25T23:26:35.038Z,101551.53
2022-11-25T23:29:02.747Z,101557.72
2022-11-25T23:31:30.234Z,101562.91
2022-11-25T23:33:57.741Z,101560.13
2022-11-25T23:36:27.138Z,101566.34
2022-11-25T23:38:55.765Z,101569.97
2022-11-25T23:41:23.959Z,101566.47
2022-11-25T23:43:51.404Z,101571.69
2022-11-25T23:46:20.083Z,101575.56
2022-11-25T23:48:52.939Z,101578.97
2022-11-25T23:51:20.992Z,101586.00
2022-11-25T23:53:49.774Z,101579.72
2022-11-25T23:56:17.231Z,101591.22
2022-11-25T23:58:44.697Z,101588.44
